Sikeston, Missouri
Current Conditions -  °F | °C
As of 3:35 PM on Saturday 22 Nov 2014 (Local Time) from KCIR Reporting Station
Broken Clouds Broken Clouds  
Wind Chill: 66°   Ceiling: 5000
Heat Index: 66°   Visibility: 10mi
Dew Point: 42°   Wind: 7mph
Humidity: 41%   Direction: 180°S
Pressure: 30.06"   Gusts: NA
Location:  36.88°N, 89.59°W
Report Text: KCIR 222135Z AUTO 18006KT 10SM BKN050 BKN100 19/05 A3006 RMK AO2 T01900053
Loading
Personal Weather Stations






























Interactive Weather Map New forecast layout! Learn more

10-Day Weather Forecast

Advertisements
Track Severe Weather on mobile